createdAt,value
2023-04-08T00:01:35.656Z,10.75
2023-04-08T00:04:02.526Z,10.52
2023-04-08T00:06:30.210Z,10.96
2023-04-08T00:08:56.745Z,11.06
2023-04-08T00:11:23.346Z,11.23
2023-04-08T00:13:49.846Z,11.30
2023-04-08T00:16:16.346Z,10.96
2023-04-08T00:18:43.190Z,9.95
2023-04-08T00:21:09.747Z,10.47
2023-04-08T00:23:36.225Z,10.92
2023-04-08T00:26:02.983Z,11.32
2023-04-08T00:28:29.549Z,9.90
2023-04-08T00:30:58.402Z,8.62
2023-04-08T00:33:25.030Z,8.40
2023-04-08T00:35:51.609Z,8.17
2023-04-08T00:38:18.111Z,7.75
2023-04-08T00:40:44.668Z,7.88
2023-04-08T00:43:11.528Z,7.41
2023-04-08T00:45:38.026Z,7.76
2023-04-08T00:48:05.960Z,8.23
2023-04-08T00:50:32.530Z,9.10
2023-04-08T00:52:59.091Z,9.92
2023-04-08T00:55:25.666Z,10.24
2023-04-08T00:57:52.219Z,10.29
2023-04-08T01:00:18.745Z,10.59
2023-04-08T01:02:45.614Z,10.56
2023-04-08T01:05:13.521Z,10.90
2023-04-08T01:07:40.092Z,10.86
2023-04-08T01:10:06.608Z,10.25
2023-04-08T01:12:33.227Z,10.93
2023-04-08T01:15:00.037Z,10.20
2023-04-08T01:17:26.919Z,10.58
2023-04-08T01:19:53.431Z,10.99
2023-04-08T01:22:19.986Z,10.60
2023-04-08T01:24:46.593Z,11.21
2023-04-08T01:27:13.035Z,11.10
2023-04-08T01:29:39.514Z,11.16
2023-04-08T01:32:06.430Z,11.12
2023-04-08T01:34:33.595Z,11.43
2023-04-08T01:37:00.166Z,11.04
2023-04-08T01:39:26.910Z,11.17
2023-04-08T01:41:53.400Z,10.04
2023-04-08T01:44:19.902Z,10.01
2023-04-08T01:46:46.513Z,10.32
2023-04-08T01:49:13.093Z,10.88
2023-04-08T01:51:39.907Z,11.01
2023-04-08T01:54:06.675Z,10.87
2023-04-08T01:56:34.070Z,10.96
2023-04-08T01:59:00.964Z,10.94
2023-04-08T02:01:27.865Z,11.03
2023-04-08T02:03:54.518Z,11.19
2023-04-08T02:06:21.056Z,10.86
2023-04-08T02:08:48.030Z,11.06
2023-04-08T02:11:14.910Z,10.91
2023-04-08T02:13:41.547Z,11.13
2023-04-08T02:16:08.157Z,11.18
2023-04-08T02:18:36.585Z,11.11
2023-04-08T02:21:03.379Z,11.12
2023-04-08T02:23:30.113Z,11.34
2023-04-08T02:25:56.664Z,11.17
2023-04-08T02:28:23.148Z,11.26
2023-04-08T02:30:50.374Z,11.04
2023-04-08T02:33:16.974Z,10.94
2023-04-08T02:35:43.877Z,11.09
2023-04-08T02:38:12.846Z,10.69
2023-04-08T02:40:39.642Z,10.52
2023-04-08T02:43:07.017Z,10.87
2023-04-08T02:45:34.784Z,10.03
2023-04-08T02:48:01.317Z,9.82
2023-04-08T02:50:28.216Z,10.68
2023-04-08T02:52:54.995Z,10.64
2023-04-08T02:55:21.490Z,10.84
2023-04-08T02:57:48.070Z,11.01
2023-04-08T03:00:14.619Z,10.91
2023-04-08T03:02:41.749Z,10.89
2023-04-08T03:05:08.418Z,10.28
2023-04-08T03:07:34.933Z,9.40
2023-04-08T03:10:01.414Z,8.94
2023-04-08T03:12:28.267Z,8.36
2023-04-08T03:14:55.093Z,8.15
2023-04-08T03:17:21.920Z,8.35
2023-04-08T03:19:48.453Z,8.20
2023-04-08T03:22:15.023Z,7.76
2023-04-08T03:24:41.630Z,8.21
2023-04-08T03:27:08.276Z,8.36
2023-04-08T03:29:34.900Z,7.71
2023-04-08T03:32:01.806Z,8.30
2023-04-08T03:34:28.322Z,7.70
2023-04-08T03:36:54.933Z,8.63
2023-04-08T03:39:21.537Z,9.02
2023-04-08T03:41:48.379Z,9.39
2023-04-08T03:44:15.153Z,9.86
2023-04-08T03:46:41.697Z,10.20
2023-04-08T03:49:08.274Z,10.43
2023-04-08T03:51:42.336Z,10.09
2023-04-08T03:54:08.953Z,8.92
2023-04-08T03:56:35.483Z,8.11
2023-04-08T03:59:02.041Z,7.96
2023-04-08T04:01:28.628Z,8.26
2023-04-08T04:03:55.314Z,8.19
2023-04-08T04:06:21.981Z,7.82
2023-04-08T04:08:48.764Z,7.24
2023-04-08T04:11:15.545Z,7.34
2023-04-08T04:13:42.358Z,7.31
2023-04-08T04:16:08.877Z,7.53
2023-04-08T04:18:35.599Z,8.07
2023-04-08T04:21:02.173Z,7.60
2023-04-08T04:23:29.084Z,7.01
2023-04-08T04:25:55.660Z,6.95
2023-04-08T04:28:22.362Z,7.16
2023-04-08T04:30:49.376Z,7.12
2023-04-08T04:33:16.587Z,7.45
2023-04-08T04:38:58.353Z,6.89
2023-04-08T04:41:24.845Z,6.74
2023-04-08T04:43:51.377Z,6.78
2023-04-08T04:46:17.942Z,7.35
2023-04-08T04:48:44.733Z,7.06
2023-04-08T04:54:26.491Z,7.03
2023-04-08T05:02:56.897Z,6.63
2023-04-08T05:05:23.957Z,6.81
2023-04-08T05:07:58.068Z,6.54
2023-04-08T05:10:24.552Z,6.81
2023-04-08T05:12:51.410Z,6.55
2023-04-08T05:15:18.045Z,6.95
2023-04-08T05:17:44.914Z,6.78
2023-04-08T05:20:12.529Z,7.01
2023-04-08T05:22:39.170Z,6.91
2023-04-08T05:25:08.176Z,7.58
2023-04-08T05:27:37.010Z,8.35
2023-04-08T05:30:03.594Z,8.26
2023-04-08T05:32:30.210Z,7.89
2023-04-08T05:34:56.822Z,7.03
2023-04-08T05:37:23.279Z,6.60
2023-04-08T05:39:51.689Z,7.46
2023-04-08T05:42:18.253Z,7.91
2023-04-08T05:44:44.798Z,8.34
2023-04-08T05:47:12.239Z,8.82
2023-04-08T05:49:38.884Z,10.05
2023-04-08T05:52:05.660Z,10.63
2023-04-08T05:54:32.547Z,11.76
2023-04-08T05:56:59.254Z,13.39
2023-04-08T05:59:25.773Z,14.89
2023-04-08T06:01:54.890Z,14.88
2023-04-08T06:04:21.509Z,15.87
2023-04-08T06:06:50.225Z,15.45
2023-04-08T06:09:17.774Z,15.09
2023-04-08T06:11:44.451Z,14.61
2023-04-08T06:14:10.988Z,13.61
2023-04-08T06:16:38.149Z,12.66
2023-04-08T06:19:04.703Z,12.73
2023-04-08T06:21:31.289Z,12.77
2023-04-08T06:23:58.128Z,12.92
2023-04-08T06:29:19.845Z,11.60
2023-04-08T06:31:46.670Z,10.54
2023-04-08T06:34:13.370Z,9.41
2023-04-08T06:36:40.074Z,9.09
2023-04-08T06:39:06.877Z,9.06
2023-04-08T06:41:33.549Z,9.70
2023-04-08T06:44:00.129Z,10.37
2023-04-08T06:46:26.721Z,10.08
2023-04-08T06:48:53.999Z,10.20
2023-04-08T06:51:20.851Z,10.89
2023-04-08T06:53:47.617Z,10.23
2023-04-08T06:56:14.654Z,10.74
2023-04-08T06:58:41.324Z,10.94
2023-04-08T07:01:08.335Z,10.94
2023-04-08T07:03:35.377Z,10.53
2023-04-08T07:06:01.952Z,11.35
2023-04-08T07:08:29.667Z,11.99
2023-04-08T07:10:56.229Z,11.88
2023-04-08T07:13:22.821Z,11.69
2023-04-08T07:18:19.738Z,12.54
2023-04-08T07:20:46.275Z,12.95
2023-04-08T07:23:12.887Z,13.96
2023-04-08T07:25:41.203Z,14.18
2023-04-08T07:28:07.739Z,13.11
2023-04-08T07:30:34.368Z,13.74
2023-04-08T07:33:01.196Z,13.34
2023-04-08T07:35:28.108Z,11.90
2023-04-08T07:37:54.800Z,11.92
2023-04-08T07:40:21.261Z,12.74
2023-04-08T07:42:47.856Z,12.54
2023-04-08T07:45:14.884Z,12.23
2023-04-08T07:47:41.910Z,11.86
2023-04-08T07:50:08.580Z,11.80
2023-04-08T07:52:36.351Z,11.53
2023-04-08T07:55:02.922Z,11.01
2023-04-08T07:57:29.584Z,10.87
2023-04-08T07:59:56.621Z,12.01
2023-04-08T08:02:23.589Z,12.86
2023-04-08T08:04:50.216Z,11.95
2023-04-08T08:07:17.617Z,11.73
2023-04-08T08:09:44.152Z,11.47
2023-04-08T08:12:10.747Z,10.67
2023-04-08T08:14:37.498Z,10.37
2023-04-08T08:17:04.085Z,10.75
2023-04-08T08:19:31.016Z,10.96
2023-04-08T08:21:58.457Z,11.71
2023-04-08T08:24:25.299Z,11.90
2023-04-08T08:26:52.131Z,12.05
2023-04-08T08:29:18.647Z,10.93
2023-04-08T08:31:52.682Z,10.67
2023-04-08T08:34:21.724Z,11.16
2023-04-08T08:36:48.426Z,10.79
2023-04-08T08:39:15.942Z,10.90
2023-04-08T08:41:42.825Z,10.94
2023-04-08T08:44:09.431Z,11.71
2023-04-08T08:49:21.589Z,12.29
2023-04-08T08:51:49.274Z,12.26
2023-04-08T08:54:16.864Z,12.71
2023-04-08T08:56:43.645Z,12.29
2023-04-08T08:59:10.221Z,12.14
2023-04-08T09:01:38.086Z,11.21
2023-04-08T09:04:09.702Z,10.39
2023-04-08T09:06:36.484Z,11.11
2023-04-08T09:09:03.190Z,11.63
2023-04-08T09:11:29.789Z,12.63
2023-04-08T09:14:02.466Z,12.82
2023-04-08T09:16:30.835Z,12.97
2023-04-08T09:18:57.597Z,12.76
2023-04-08T09:21:24.462Z,12.42
2023-04-08T09:23:53.573Z,13.09
2023-04-08T09:26:22.462Z,13.59
2023-04-08T09:28:49.626Z,14.09
2023-04-08T09:31:17.585Z,13.57
2023-04-08T09:33:44.266Z,13.15
2023-04-08T09:36:11.791Z,13.12
2023-04-08T09:38:38.447Z,13.79
2023-04-08T09:41:07.140Z,14.22
2023-04-08T09:43:34.487Z,13.30
2023-04-08T09:46:01.544Z,12.98
2023-04-08T09:48:31.119Z,12.27
2023-04-08T09:50:58.155Z,10.64
2023-04-08T09:53:24.736Z,12.32
2023-04-08T09:55:52.214Z,12.91
2023-04-08T09:58:21.820Z,13.29
2023-04-08T10:00:48.419Z,13.05
2023-04-08T10:03:15.340Z,13.76
2023-04-08T10:05:42.492Z,12.73
2023-04-08T10:08:10.354Z,13.69
2023-04-08T10:10:36.960Z,13.07
2023-04-08T10:13:04.813Z,13.75
2023-04-08T10:15:31.704Z,13.72
2023-04-08T10:17:58.702Z,14.18
2023-04-08T10:20:29.822Z,13.91
2023-04-08T10:22:56.749Z,13.44
2023-04-08T10:25:23.299Z,13.73
2023-04-08T10:27:49.909Z,14.18
2023-04-08T10:30:17.747Z,13.96
2023-04-08T10:32:44.275Z,13.06
2023-04-08T10:35:11.138Z,13.44
2023-04-08T10:37:38.034Z,12.66
2023-04-08T10:40:06.083Z,12.72
2023-04-08T10:42:32.705Z,13.00
2023-04-08T10:45:00.076Z,13.48
2023-04-08T10:47:26.993Z,13.61
2023-04-08T10:49:54.714Z,13.37
2023-04-08T10:52:21.541Z,14.09
2023-04-08T10:54:48.899Z,14.03
2023-04-08T10:57:15.430Z,14.60
2023-04-08T10:59:42.042Z,14.68
2023-04-08T11:02:10.475Z,13.66
2023-04-08T11:04:37.457Z,13.35
2023-04-08T11:07:04.367Z,12.99
2023-04-08T11:09:32.185Z,13.19
2023-04-08T11:11:58.621Z,13.12
2023-04-08T11:14:28.452Z,13.01
2023-04-08T11:16:58.129Z,12.82
2023-04-08T11:19:24.759Z,13.08
2023-04-08T11:21:51.774Z,13.33
2023-04-08T11:24:18.621Z,13.13
2023-04-08T11:26:49.945Z,12.92
2023-04-08T11:29:18.222Z,13.26
2023-04-08T11:31:45.095Z,13.14
2023-04-08T11:34:12.017Z,13.03
2023-04-08T11:36:38.980Z,13.01
2023-04-08T11:39:07.739Z,13.57
2023-04-08T11:41:36.121Z,14.36
2023-04-08T11:44:02.700Z,14.93
2023-04-08T11:46:29.585Z,14.36
2023-04-08T11:48:57.347Z,13.85
2023-04-08T11:51:25.225Z,12.87
2023-04-08T11:53:55.390Z,13.30
2023-04-08T11:56:23.006Z,13.49
2023-04-08T11:58:53.648Z,13.64
2023-04-08T12:01:20.454Z,13.49
2023-04-08T12:03:47.450Z,13.52
2023-04-08T12:06:16.932Z,14.02
2023-04-08T12:08:44.223Z,13.99
2023-04-08T12:11:19.528Z,13.50
2023-04-08T12:13:46.812Z,13.17
2023-04-08T12:19:06.348Z,13.16
2023-04-08T12:21:32.878Z,13.20
2023-04-08T12:24:01.808Z,13.12
2023-04-08T12:26:28.359Z,13.41
2023-04-08T12:28:54.906Z,13.82
2023-04-08T12:31:23.998Z,14.51
2023-04-08T12:33:51.150Z,13.33
2023-04-08T12:36:18.084Z,13.26
2023-04-08T12:38:47.362Z,13.34
2023-04-08T12:41:13.864Z,13.55
2023-04-08T12:43:40.377Z,13.84
2023-04-08T12:46:07.863Z,13.96
2023-04-08T12:48:34.602Z,14.39
2023-04-08T12:51:02.415Z,14.07
2023-04-08T12:53:29.761Z,13.51
2023-04-08T12:55:57.278Z,13.39
2023-04-08T12:58:27.072Z,12.96
2023-04-08T13:00:56.997Z,13.12
2023-04-08T13:03:24.886Z,13.56
2023-04-08T13:05:51.480Z,13.79
2023-04-08T13:08:19.343Z,14.15
2023-04-08T13:10:45.880Z,13.65
2023-04-08T13:13:12.435Z,13.95
2023-04-08T13:15:39.339Z,13.52
2023-04-08T13:18:06.558Z,13.54
2023-04-08T13:23:42.442Z,12.68
2023-04-08T13:26:09.249Z,12.61
2023-04-08T13:31:26.812Z,13.73
2023-04-08T13:33:56.944Z,13.36
2023-04-08T13:36:26.031Z,13.59
2023-04-08T13:38:53.073Z,13.31
2023-04-08T13:41:20.549Z,13.95
2023-04-08T13:43:47.411Z,13.74
2023-04-08T13:46:17.061Z,14.24
2023-04-08T13:48:43.884Z,14.11
2023-04-08T13:51:11.609Z,14.24
2023-04-08T13:53:38.463Z,14.87
2023-04-08T13:56:05.667Z,15.09
2023-04-08T13:58:33.692Z,15.08
2023-04-08T14:01:00.196Z,14.35
2023-04-08T14:03:29.572Z,14.14
2023-04-08T14:05:56.536Z,14.69
2023-04-08T14:08:23.357Z,15.11
2023-04-08T14:10:51.954Z,14.39
2023-04-08T14:13:18.845Z,13.67
2023-04-08T14:15:47.913Z,13.41
2023-04-08T14:18:14.744Z,13.17
2023-04-08T14:20:41.593Z,12.86
2023-04-08T14:23:09.257Z,12.67
2023-04-08T14:25:38.592Z,12.78
2023-04-08T14:28:05.556Z,13.10
2023-04-08T14:30:34.791Z,12.94
2023-04-08T14:33:01.343Z,13.14
2023-04-08T14:35:28.065Z,13.91
2023-04-08T14:37:55.416Z,13.70
2023-04-08T14:40:21.974Z,13.72
2023-04-08T14:42:48.889Z,13.06
2023-04-08T14:48:10.444Z,13.56
2023-04-08T14:50:37.079Z,13.23
2023-04-08T14:53:03.641Z,13.21
2023-04-08T14:55:32.397Z,13.53
2023-04-08T14:58:01.082Z,13.28
2023-04-08T15:00:27.834Z,13.88
2023-04-08T15:02:55.758Z,14.45
2023-04-08T15:05:23.754Z,15.05
2023-04-08T15:07:50.269Z,15.02
2023-04-08T15:13:32.991Z,14.22
2023-04-08T15:15:59.542Z,14.24
2023-04-08T15:18:26.043Z,13.50
2023-04-08T15:20:52.658Z,13.25
2023-04-08T15:23:20.837Z,13.06
2023-04-08T15:28:57.011Z,13.25
2023-04-08T15:31:25.462Z,13.29
2023-04-08T15:33:52.286Z,13.33
2023-04-08T15:36:20.067Z,13.57
2023-04-08T15:38:46.985Z,13.42
2023-04-08T15:41:13.549Z,12.90
2023-04-08T15:43:40.448Z,13.25
2023-04-08T15:46:07.376Z,13.32
2023-04-08T15:48:34.060Z,13.30
2023-04-08T15:53:45.997Z,13.13
2023-04-08T15:56:12.657Z,12.83
2023-04-08T15:58:41.865Z,13.14
2023-04-08T16:01:08.388Z,13.44
2023-04-08T16:03:35.182Z,13.27
2023-04-08T16:06:01.772Z,13.17
2023-04-08T16:08:28.360Z,13.32
2023-04-08T16:10:55.154Z,13.18
2023-04-08T16:13:22.542Z,12.87
2023-04-08T16:15:49.175Z,12.87
2023-04-08T16:18:16.366Z,12.85
2023-04-08T16:20:44.883Z,12.83
2023-04-08T16:23:11.706Z,13.26
2023-04-08T16:28:29.743Z,13.44
2023-04-08T16:30:57.002Z,13.01
2023-04-08T16:33:23.883Z,13.10
2023-04-08T16:35:50.695Z,13.31
2023-04-08T16:38:18.277Z,13.03
2023-04-08T16:40:46.956Z,12.80
2023-04-08T16:43:14.188Z,13.08
2023-04-08T16:45:41.136Z,13.03
2023-04-08T16:48:07.977Z,12.89
2023-04-08T16:50:34.807Z,13.21
2023-04-08T16:53:03.461Z,13.29
2023-04-08T16:55:30.249Z,13.22
2023-04-08T16:57:57.711Z,13.19
2023-04-08T17:00:24.284Z,13.17
2023-04-08T17:02:51.216Z,12.76
2023-04-08T17:05:17.928Z,12.77
2023-04-08T17:07:48.951Z,13.16
2023-04-08T17:10:15.498Z,12.85
2023-04-08T17:12:42.005Z,13.07
2023-04-08T17:15:08.595Z,13.23
2023-04-08T17:17:35.233Z,13.08
2023-04-08T17:20:01.759Z,12.68
2023-04-08T17:22:28.263Z,12.35
2023-04-08T17:27:48.346Z,12.27
2023-04-08T17:30:15.192Z,12.23
2023-04-08T17:32:41.698Z,12.20
2023-04-08T17:35:08.184Z,12.20
2023-04-08T17:37:38.840Z,12.56
2023-04-08T17:40:05.354Z,12.49
2023-04-08T17:42:42.161Z,12.21
2023-04-08T17:45:08.851Z,12.31
2023-04-08T17:47:35.929Z,12.37
2023-04-08T17:50:04.667Z,12.49
2023-04-08T17:52:31.590Z,12.44
2023-04-08T17:54:59.011Z,12.37
2023-04-08T17:57:28.046Z,12.51
2023-04-08T17:59:56.903Z,12.72
2023-04-08T18:02:24.308Z,12.39
2023-04-08T18:04:50.995Z,12.20
2023-04-08T18:07:17.839Z,12.37
2023-04-08T18:09:44.302Z,12.41
2023-04-08T18:12:11.101Z,11.86
2023-04-08T18:14:37.995Z,11.54
2023-04-08T18:17:04.571Z,11.49
2023-04-08T18:19:31.461Z,11.40
2023-04-08T18:21:58.014Z,11.18
2023-04-08T18:24:24.823Z,11.16
2023-04-08T18:27:01.447Z,11.25
2023-04-08T18:29:32.080Z,11.17
2023-04-08T18:31:58.958Z,11.13
2023-04-08T18:34:25.516Z,11.01
2023-04-08T18:36:52.331Z,11.10
2023-04-08T18:39:20.799Z,11.08
2023-04-08T18:41:48.094Z,10.88
2023-04-08T18:44:14.886Z,10.78
2023-04-08T18:46:41.902Z,10.82
2023-04-08T18:49:08.611Z,10.90
2023-04-08T18:51:35.167Z,10.87
2023-04-08T18:54:01.976Z,10.69
2023-04-08T18:56:28.786Z,10.67
2023-04-08T18:58:55.248Z,10.94
2023-04-08T19:01:22.075Z,11.06
2023-04-08T19:03:48.713Z,11.08
2023-04-08T19:06:15.608Z,11.03
2023-04-08T19:08:42.425Z,10.93
2023-04-08T19:11:09.010Z,10.50
2023-04-08T19:13:35.474Z,10.41
2023-04-08T19:16:02.660Z,10.32
2023-04-08T19:18:29.551Z,10.21
2023-04-08T19:20:56.325Z,10.21
2023-04-08T19:23:22.868Z,10.22
2023-04-08T19:25:49.441Z,10.08
2023-04-08T19:28:16.001Z,10.18
2023-04-08T19:30:45.463Z,10.31
2023-04-08T19:33:13.343Z,10.15
2023-04-08T19:35:39.796Z,10.14
2023-04-08T19:38:06.479Z,10.15
2023-04-08T19:40:33.055Z,10.13
2023-04-08T19:42:59.802Z,10.11
2023-04-08T19:45:26.822Z,10.21
2023-04-08T19:47:53.538Z,10.35
2023-04-08T19:50:20.089Z,10.21
2023-04-08T19:52:46.718Z,10.15
2023-04-08T19:55:13.319Z,10.05
2023-04-08T19:57:40.262Z,10.04
2023-04-08T20:00:07.123Z,9.99
2023-04-08T20:02:34.049Z,9.91
2023-04-08T20:05:04.276Z,9.89
2023-04-08T20:07:33.253Z,9.83
2023-04-08T20:10:02.126Z,9.83
2023-04-08T20:12:29.409Z,9.75
2023-04-08T20:14:56.033Z,9.86
2023-04-08T20:17:22.933Z,9.90
2023-04-08T20:19:49.811Z,9.92
2023-04-08T20:22:28.716Z,9.96
2023-04-08T20:24:57.392Z,9.95
2023-04-08T20:27:23.939Z,9.82
2023-04-08T20:29:50.484Z,9.89
2023-04-08T20:32:17.172Z,9.88
2023-04-08T20:34:43.695Z,9.78
2023-04-08T20:37:10.296Z,9.77
2023-04-08T20:39:37.110Z,9.61
2023-04-08T20:42:03.916Z,9.70
2023-04-08T20:44:30.714Z,9.57
2023-04-08T20:46:57.584Z,9.70
2023-04-08T20:49:24.128Z,9.66
2023-04-08T20:51:50.933Z,9.55
2023-04-08T20:54:17.487Z,9.53
2023-04-08T20:56:46.288Z,9.57
2023-04-08T20:59:15.978Z,9.59
2023-04-08T21:01:42.850Z,9.60
2023-04-08T21:04:09.726Z,9.53
2023-04-08T21:06:36.253Z,9.53
2023-04-08T21:09:02.775Z,9.40
2023-04-08T21:11:31.466Z,9.50
2023-04-08T21:13:58.000Z,9.50
2023-04-08T21:16:24.884Z,9.32
2023-04-08T21:18:51.579Z,9.38
2023-04-08T21:21:18.541Z,9.39
2023-04-08T21:23:45.322Z,9.43
2023-04-08T21:26:12.113Z,9.35
2023-04-08T21:28:39.090Z,9.37
2023-04-08T21:31:05.650Z,9.39
2023-04-08T21:33:32.221Z,9.38
2023-04-08T21:35:58.849Z,9.28
2023-04-08T21:38:25.744Z,9.16
2023-04-08T21:40:52.518Z,9.17
2023-04-08T21:43:19.056Z,9.20
2023-04-08T21:45:45.652Z,9.21
2023-04-08T21:48:12.448Z,9.19
2023-04-08T21:50:39.291Z,9.20
2023-04-08T21:53:05.911Z,9.23
2023-04-08T21:55:32.527Z,9.17
2023-04-08T21:58:00.070Z,9.15
2023-04-08T22:00:26.673Z,9.07
2023-04-08T22:02:59.292Z,9.10
2023-04-08T22:05:35.816Z,9.13
2023-04-08T22:08:05.798Z,9.11
2023-04-08T22:10:38.378Z,9.07
2023-04-08T22:13:04.889Z,9.07
2023-04-08T22:15:31.554Z,8.98
2023-04-08T22:17:58.096Z,9.01
2023-04-08T22:20:24.642Z,9.08
2023-04-08T22:22:52.267Z,9.06
2023-04-08T22:25:18.918Z,8.97
2023-04-08T22:27:47.849Z,9.11
2023-04-08T22:30:14.477Z,9.04
2023-04-08T22:32:41.049Z,9.15
2023-04-08T22:35:09.906Z,9.21
2023-04-08T22:37:36.457Z,9.41
2023-04-08T22:40:03.000Z,9.55
2023-04-08T22:42:29.832Z,9.41
2023-04-08T22:44:56.452Z,9.22
2023-04-08T22:47:23.012Z,9.29
2023-04-08T22:49:49.684Z,9.23
2023-04-08T22:52:16.125Z,9.12
2023-04-08T22:54:42.931Z,9.24
2023-04-08T22:57:09.514Z,9.17
2023-04-08T22:59:36.301Z,9.29
2023-04-08T23:02:03.070Z,9.49
2023-04-08T23:04:29.823Z,9.32
2023-04-08T23:06:56.586Z,9.06
2023-04-08T23:09:23.798Z,9.34
2023-04-08T23:11:51.025Z,9.18
2023-04-08T23:14:17.819Z,9.19
2023-04-08T23:16:44.378Z,9.19
2023-04-08T23:19:11.153Z,9.02
2023-04-08T23:21:37.780Z,9.06
2023-04-08T23:24:04.380Z,9.46
2023-04-08T23:26:30.890Z,10.25
2023-04-08T23:28:57.419Z,11.08
2023-04-08T23:31:26.688Z,11.14
2023-04-08T23:33:53.238Z,11.36
2023-04-08T23:36:20.022Z,11.07
2023-04-08T23:38:46.549Z,11.90
2023-04-08T23:41:13.120Z,12.30
2023-04-08T23:43:39.946Z,12.07
2023-04-08T23:46:06.731Z,10.81
2023-04-08T23:48:33.556Z,10.17
2023-04-08T23:51:00.300Z,10.23
2023-04-08T23:53:26.837Z,10.83
2023-04-08T23:55:54.208Z,10.04
2023-04-08T23:58:20.779Z,10.01
